sensor_id;sensor_type;location;lat;lon;timestamp;P1;durP1;ratioP1;P2;durP2;ratioP2
3755;SDS011;1893;52.526;13.360;2022-10-16T00:01:23;2.73;;;2.20;;
3755;SDS011;1893;52.526;13.360;2022-10-16T00:03:51;2.87;;;1.77;;
3755;SDS011;1893;52.526;13.360;2022-10-16T00:06:18;2.27;;;1.97;;
3755;SDS011;1893;52.526;13.360;2022-10-16T00:08:45;1.70;;;1.60;;
3755;SDS011;1893;52.526;13.360;2022-10-16T00:11:12;2.47;;;1.90;;
3755;SDS011;1893;52.526;13.360;2022-10-16T00:13:42;2.77;;;2.53;;
3755;SDS011;1893;52.526;13.360;2022-10-16T00:16:09;3.20;;;2.13;;
3755;SDS011;1893;52.526;13.360;2022-10-16T00:18:36;2.50;;;2.30;;
3755;SDS011;1893;52.526;13.360;2022-10-16T00:21:05;2.07;;;1.90;;
3755;SDS011;1893;52.526;13.360;2022-10-16T00:23:39;3.60;;;1.93;;
3755;SDS011;1893;52.526;13.360;2022-10-16T00:26:06;1.77;;;1.67;;
3755;SDS011;1893;52.526;13.360;2022-10-16T00:28:34;2.10;;;2.00;;
3755;SDS011;1893;52.526;13.360;2022-10-16T00:31:04;2.43;;;2.23;;
3755;SDS011;1893;52.526;13.360;2022-10-16T00:33:32;2.27;;;1.93;;
3755;SDS011;1893;52.526;13.360;2022-10-16T00:35:58;1.90;;;1.80;;
3755;SDS011;1893;52.526;13.360;2022-10-16T00:38:25;2.73;;;2.07;;
3755;SDS011;1893;52.526;13.360;2022-10-16T00:40:50;2.03;;;1.93;;
3755;SDS011;1893;52.526;13.360;2022-10-16T00:43:36;3.77;;;2.00;;
3755;SDS011;1893;52.526;13.360;2022-10-16T00:46:03;1.90;;;1.80;;
3755;SDS011;1893;52.526;13.360;2022-10-16T00:48:30;3.57;;;2.17;;
3755;SDS011;1893;52.526;13.360;2022-10-16T00:50:56;2.27;;;2.07;;
3755;SDS011;1893;52.526;13.360;2022-10-16T00:53:23;2.20;;;2.10;;
3755;SDS011;1893;52.526;13.360;2022-10-16T00:55:51;2.50;;;1.63;;
3755;SDS011;1893;52.526;13.360;2022-10-16T00:58:16;1.80;;;1.70;;
3755;SDS011;1893;52.526;13.360;2022-10-16T01:00:42;2.03;;;1.60;;
3755;SDS011;1893;52.526;13.360;2022-10-16T01:05:56;3.63;;;2.20;;
3755;SDS011;1893;52.526;13.360;2022-10-16T01:08:44;2.10;;;2.00;;
3755;SDS011;1893;52.526;13.360;2022-10-16T01:11:26;2.20;;;1.77;;
3755;SDS011;1893;52.526;13.360;2022-10-16T01:13:58;2.00;;;1.73;;
3755;SDS011;1893;52.526;13.360;2022-10-16T01:19:18;1.90;;;1.80;;
3755;SDS011;1893;52.526;13.360;2022-10-16T01:21:51;2.60;;;2.43;;
3755;SDS011;1893;52.526;13.360;2022-10-16T01:32:40;1.83;;;1.70;;
3755;SDS011;1893;52.526;13.360;2022-10-16T01:38:05;1.90;;;1.67;;
3755;SDS011;1893;52.526;13.360;2022-10-16T01:40:37;2.20;;;2.03;;
3755;SDS011;1893;52.526;13.360;2022-10-16T01:43:07;1.80;;;1.70;;
3755;SDS011;1893;52.526;13.360;2022-10-16T01:45:36;1.70;;;1.60;;
3755;SDS011;1893;52.526;13.360;2022-10-16T01:48:02;1.90;;;1.70;;
3755;SDS011;1893;52.526;13.360;2022-10-16T01:50:32;1.83;;;1.67;;
3755;SDS011;1893;52.526;13.360;2022-10-16T01:53:03;1.50;;;1.40;;
3755;SDS011;1893;52.526;13.360;2022-10-16T01:55:32;1.60;;;1.50;;
3755;SDS011;1893;52.526;13.360;2022-10-16T01:58:01;2.17;;;1.97;;
3755;SDS011;1893;52.526;13.360;2022-10-16T02:00:29;1.97;;;1.77;;
3755;SDS011;1893;52.526;13.360;2022-10-16T02:02:56;2.00;;;1.77;;
3755;SDS011;1893;52.526;13.360;2022-10-16T02:05:30;1.90;;;1.80;;
3755;SDS011;1893;52.526;13.360;2022-10-16T02:08:02;1.97;;;1.57;;
3755;SDS011;1893;52.526;13.360;2022-10-16T02:10:28;1.73;;;1.63;;
3755;SDS011;1893;52.526;13.360;2022-10-16T02:15:52;1.57;;;1.47;;
3755;SDS011;1893;52.526;13.360;2022-10-16T02:18:17;6.37;;;1.90;;
3755;SDS011;1893;52.526;13.360;2022-10-16T02:23:29;3.00;;;1.60;;
3755;SDS011;1893;52.526;13.360;2022-10-16T02:26:03;3.17;;;1.67;;
3755;SDS011;1893;52.526;13.360;2022-10-16T02:28:38;4.20;;;1.43;;
3755;SDS011;1893;52.526;13.360;2022-10-16T02:31:09;1.50;;;1.40;;
3755;SDS011;1893;52.526;13.360;2022-10-16T02:33:37;1.90;;;1.80;;
3755;SDS011;1893;52.526;13.360;2022-10-16T02:36:05;2.43;;;1.70;;
3755;SDS011;1893;52.526;13.360;2022-10-16T02:38:31;2.60;;;1.50;;
3755;SDS011;1893;52.526;13.360;2022-10-16T02:40:57;1.50;;;1.30;;
3755;SDS011;1893;52.526;13.360;2022-10-16T02:43:24;1.53;;;1.43;;
3755;SDS011;1893;52.526;13.360;2022-10-16T02:45:50;2.00;;;1.47;;
3755;SDS011;1893;52.526;13.360;2022-10-16T02:48:16;1.83;;;1.70;;
3755;SDS011;1893;52.526;13.360;2022-10-16T02:50:41;2.10;;;1.53;;
3755;SDS011;1893;52.526;13.360;2022-10-16T02:53:07;1.83;;;1.70;;
3755;SDS011;1893;52.526;13.360;2022-10-16T02:55:32;1.87;;;1.77;;
3755;SDS011;1893;52.526;13.360;2022-10-16T02:57:58;2.17;;;2.07;;
3755;SDS011;1893;52.526;13.360;2022-10-16T03:00:23;2.40;;;1.57;;
3755;SDS011;1893;52.526;13.360;2022-10-16T03:02:49;1.70;;;1.60;;
3755;SDS011;1893;52.526;13.360;2022-10-16T03:05:15;2.47;;;2.27;;
3755;SDS011;1893;52.526;13.360;2022-10-16T03:07:41;1.53;;;1.43;;
3755;SDS011;1893;52.526;13.360;2022-10-16T03:10:07;2.13;;;1.50;;
3755;SDS011;1893;52.526;13.360;2022-10-16T03:12:33;3.13;;;2.10;;
3755;SDS011;1893;52.526;13.360;2022-10-16T03:14:58;1.90;;;1.80;;
3755;SDS011;1893;52.526;13.360;2022-10-16T03:17:24;3.47;;;1.90;;
3755;SDS011;1893;52.526;13.360;2022-10-16T03:19:50;1.67;;;1.50;;
3755;SDS011;1893;52.526;13.360;2022-10-16T03:22:15;4.20;;;2.20;;
3755;SDS011;1893;52.526;13.360;2022-10-16T03:24:41;1.90;;;1.80;;
3755;SDS011;1893;52.526;13.360;2022-10-16T03:27:07;2.30;;;1.57;;
3755;SDS011;1893;52.526;13.360;2022-10-16T03:29:32;1.87;;;1.77;;
3755;SDS011;1893;52.526;13.360;2022-10-16T03:31:58;1.77;;;1.67;;
3755;SDS011;1893;52.526;13.360;2022-10-16T03:34:24;1.73;;;1.63;;
3755;SDS011;1893;52.526;13.360;2022-10-16T03:36:50;2.00;;;1.90;;
3755;SDS011;1893;52.526;13.360;2022-10-16T03:39:16;1.90;;;1.80;;
3755;SDS011;1893;52.526;13.360;2022-10-16T03:41:41;2.23;;;2.03;;
3755;SDS011;1893;52.526;13.360;2022-10-16T03:44:07;2.63;;;2.50;;
3755;SDS011;1893;52.526;13.360;2022-10-16T03:46:32;1.97;;;1.87;;
3755;SDS011;1893;52.526;13.360;2022-10-16T03:48:58;3.90;;;1.80;;
3755;SDS011;1893;52.526;13.360;2022-10-16T03:51:23;2.17;;;1.73;;
3755;SDS011;1893;52.526;13.360;2022-10-16T03:53:49;4.60;;;2.10;;
3755;SDS011;1893;52.526;13.360;2022-10-16T03:56:14;1.90;;;1.80;;
3755;SDS011;1893;52.526;13.360;2022-10-16T03:58:40;2.70;;;1.97;;
3755;SDS011;1893;52.526;13.360;2022-10-16T04:01:05;2.40;;;1.93;;
3755;SDS011;1893;52.526;13.360;2022-10-16T04:03:31;3.67;;;1.93;;
3755;SDS011;1893;52.526;13.360;2022-10-16T04:05:57;2.10;;;2.00;;
3755;SDS011;1893;52.526;13.360;2022-10-16T04:08:22;2.60;;;2.40;;
3755;SDS011;1893;52.526;13.360;2022-10-16T04:10:48;2.03;;;1.90;;
3755;SDS011;1893;52.526;13.360;2022-10-16T04:13:13;3.13;;;2.23;;
3755;SDS011;1893;52.526;13.360;2022-10-16T04:15:39;2.60;;;2.40;;
3755;SDS011;1893;52.526;13.360;2022-10-16T04:18:05;2.23;;;2.00;;
3755;SDS011;1893;52.526;13.360;2022-10-16T04:20:31;2.27;;;2.17;;
3755;SDS011;1893;52.526;13.360;2022-10-16T04:22:56;4.60;;;2.13;;
3755;SDS011;1893;52.526;13.360;2022-10-16T04:25:22;2.33;;;2.13;;
3755;SDS011;1893;52.526;13.360;2022-10-16T04:27:47;2.70;;;2.40;;
3755;SDS011;1893;52.526;13.360;2022-10-16T04:30:13;2.30;;;2.10;;
3755;SDS011;1893;52.526;13.360;2022-10-16T04:32:39;2.07;;;1.93;;
3755;SDS011;1893;52.526;13.360;2022-10-16T04:35:04;2.33;;;2.13;;
3755;SDS011;1893;52.526;13.360;2022-10-16T04:37:31;2.60;;;2.40;;
3755;SDS011;1893;52.526;13.360;2022-10-16T04:39:56;1.97;;;1.87;;
3755;SDS011;1893;52.526;13.360;2022-10-16T04:42:22;2.03;;;1.63;;
3755;SDS011;1893;52.526;13.360;2022-10-16T04:44:47;2.33;;;2.20;;
3755;SDS011;1893;52.526;13.360;2022-10-16T04:47:13;1.90;;;1.80;;
3755;SDS011;1893;52.526;13.360;2022-10-16T04:49:38;5.83;;;3.40;;
3755;SDS011;1893;52.526;13.360;2022-10-16T04:52:04;2.10;;;1.93;;
3755;SDS011;1893;52.526;13.360;2022-10-16T04:54:30;2.17;;;2.07;;
3755;SDS011;1893;52.526;13.360;2022-10-16T04:56:55;2.30;;;2.20;;
3755;SDS011;1893;52.526;13.360;2022-10-16T04:59:21;2.70;;;2.50;;
3755;SDS011;1893;52.526;13.360;2022-10-16T05:01:47;3.13;;;2.60;;
3755;SDS011;1893;52.526;13.360;2022-10-16T05:04:13;2.73;;;2.53;;
3755;SDS011;1893;52.526;13.360;2022-10-16T05:06:39;2.87;;;2.67;;
3755;SDS011;1893;52.526;13.360;2022-10-16T05:09:05;5.70;;;2.10;;
3755;SDS011;1893;52.526;13.360;2022-10-16T05:11:31;2.50;;;2.33;;
3755;SDS011;1893;52.526;13.360;2022-10-16T05:13:57;4.80;;;2.67;;
3755;SDS011;1893;52.526;13.360;2022-10-16T05:16:23;7.07;;;2.60;;
3755;SDS011;1893;52.526;13.360;2022-10-16T05:18:48;2.80;;;2.43;;
3755;SDS011;1893;52.526;13.360;2022-10-16T05:21:14;2.63;;;2.43;;
3755;SDS011;1893;52.526;13.360;2022-10-16T05:23:40;4.00;;;2.67;;
3755;SDS011;1893;52.526;13.360;2022-10-16T05:26:05;4.30;;;2.40;;
3755;SDS011;1893;52.526;13.360;2022-10-16T05:28:31;2.60;;;2.40;;
3755;SDS011;1893;52.526;13.360;2022-10-16T05:30:56;2.80;;;2.60;;
3755;SDS011;1893;52.526;13.360;2022-10-16T05:33:23;3.07;;;2.80;;
3755;SDS011;1893;52.526;13.360;2022-10-16T05:35:50;5.20;;;2.63;;
3755;SDS011;1893;52.526;13.360;2022-10-16T05:38:16;3.83;;;2.60;;
3755;SDS011;1893;52.526;13.360;2022-10-16T05:40:43;3.67;;;2.70;;
3755;SDS011;1893;52.526;13.360;2022-10-16T05:43:15;2.47;;;2.27;;
3755;SDS011;1893;52.526;13.360;2022-10-16T05:45:40;2.60;;;2.40;;
3755;SDS011;1893;52.526;13.360;2022-10-16T05:48:06;3.13;;;2.70;;
3755;SDS011;1893;52.526;13.360;2022-10-16T05:50:31;2.93;;;2.73;;
3755;SDS011;1893;52.526;13.360;2022-10-16T05:52:57;3.00;;;2.20;;
3755;SDS011;1893;52.526;13.360;2022-10-16T05:55:22;2.53;;;2.43;;
3755;SDS011;1893;52.526;13.360;2022-10-16T05:57:48;3.07;;;2.40;;
3755;SDS011;1893;52.526;13.360;2022-10-16T06:00:13;3.47;;;3.10;;
3755;SDS011;1893;52.526;13.360;2022-10-16T06:02:39;2.73;;;2.53;;
3755;SDS011;1893;52.526;13.360;2022-10-16T06:05:04;3.50;;;1.93;;
3755;SDS011;1893;52.526;13.360;2022-10-16T06:07:33;4.67;;;2.73;;
3755;SDS011;1893;52.526;13.360;2022-10-16T06:09:59;3.37;;;2.60;;
3755;SDS011;1893;52.526;13.360;2022-10-16T06:12:26;2.70;;;2.60;;
3755;SDS011;1893;52.526;13.360;2022-10-16T06:14:52;2.87;;;2.50;;
3755;SDS011;1893;52.526;13.360;2022-10-16T06:17:17;3.53;;;3.27;;
3755;SDS011;1893;52.526;13.360;2022-10-16T06:19:43;3.97;;;3.20;;
3755;SDS011;1893;52.526;13.360;2022-10-16T06:22:09;3.63;;;2.73;;
3755;SDS011;1893;52.526;13.360;2022-10-16T06:24:34;2.73;;;2.53;;
3755;SDS011;1893;52.526;13.360;2022-10-16T06:27:00;3.73;;;2.77;;
3755;SDS011;1893;52.526;13.360;2022-10-16T06:29:25;3.00;;;2.80;;
3755;SDS011;1893;52.526;13.360;2022-10-16T06:31:51;3.10;;;2.90;;
3755;SDS011;1893;52.526;13.360;2022-10-16T06:34:17;3.57;;;3.10;;
3755;SDS011;1893;52.526;13.360;2022-10-16T06:36:43;3.33;;;2.97;;
3755;SDS011;1893;52.526;13.360;2022-10-16T06:39:08;2.60;;;2.33;;
3755;SDS011;1893;52.526;13.360;2022-10-16T06:41:34;3.27;;;2.90;;
3755;SDS011;1893;52.526;13.360;2022-10-16T06:44:00;3.53;;;3.20;;
3755;SDS011;1893;52.526;13.360;2022-10-16T06:46:25;3.07;;;2.87;;
3755;SDS011;1893;52.526;13.360;2022-10-16T06:48:54;3.70;;;3.23;;
3755;SDS011;1893;52.526;13.360;2022-10-16T06:51:21;4.57;;;3.30;;
3755;SDS011;1893;52.526;13.360;2022-10-16T06:53:48;3.07;;;2.87;;
3755;SDS011;1893;52.526;13.360;2022-10-16T06:56:20;4.03;;;3.37;;
3755;SDS011;1893;52.526;13.360;2022-10-16T06:58:47;2.87;;;2.67;;
3755;SDS011;1893;52.526;13.360;2022-10-16T07:01:14;2.80;;;2.60;;
3755;SDS011;1893;52.526;13.360;2022-10-16T07:03:40;2.87;;;2.67;;
3755;SDS011;1893;52.526;13.360;2022-10-16T07:06:08;3.27;;;2.40;;
3755;SDS011;1893;52.526;13.360;2022-10-16T07:08:35;2.67;;;2.50;;
3755;SDS011;1893;52.526;13.360;2022-10-16T07:11:04;2.40;;;2.20;;
3755;SDS011;1893;52.526;13.360;2022-10-16T07:13:34;2.27;;;2.10;;
3755;SDS011;1893;52.526;13.360;2022-10-16T07:16:04;2.03;;;1.90;;
3755;SDS011;1893;52.526;13.360;2022-10-16T07:18:31;2.20;;;2.10;;
3755;SDS011;1893;52.526;13.360;2022-10-16T07:21:07;2.57;;;2.10;;
3755;SDS011;1893;52.526;13.360;2022-10-16T07:23:37;4.80;;;2.33;;
3755;SDS011;1893;52.526;13.360;2022-10-16T07:26:03;2.63;;;1.87;;
3755;SDS011;1893;52.526;13.360;2022-10-16T07:28:29;2.77;;;2.43;;
3755;SDS011;1893;52.526;13.360;2022-10-16T07:30:59;2.50;;;1.73;;
3755;SDS011;1893;52.526;13.360;2022-10-16T07:33:26;5.30;;;2.40;;
3755;SDS011;1893;52.526;13.360;2022-10-16T07:35:51;2.17;;;1.50;;
3755;SDS011;1893;52.526;13.360;2022-10-16T07:38:18;4.13;;;1.60;;
3755;SDS011;1893;52.526;13.360;2022-10-16T07:40:45;2.73;;;1.93;;
3755;SDS011;1893;52.526;13.360;2022-10-16T07:43:10;1.93;;;1.83;;
3755;SDS011;1893;52.526;13.360;2022-10-16T07:45:36;1.90;;;1.70;;
3755;SDS011;1893;52.526;13.360;2022-10-16T07:48:02;2.60;;;2.10;;
3755;SDS011;1893;52.526;13.360;2022-10-16T07:50:27;4.20;;;1.63;;
3755;SDS011;1893;52.526;13.360;2022-10-16T07:52:53;2.00;;;1.70;;
3755;SDS011;1893;52.526;13.360;2022-10-16T07:55:18;4.70;;;1.90;;
3755;SDS011;1893;52.526;13.360;2022-10-16T07:57:44;2.50;;;2.10;;
3755;SDS011;1893;52.526;13.360;2022-10-16T08:00:09;2.10;;;2.00;;
3755;SDS011;1893;52.526;13.360;2022-10-16T08:02:42;5.27;;;2.17;;
3755;SDS011;1893;52.526;13.360;2022-10-16T08:05:07;1.63;;;1.53;;
3755;SDS011;1893;52.526;13.360;2022-10-16T08:07:33;1.90;;;1.47;;
3755;SDS011;1893;52.526;13.360;2022-10-16T08:09:59;5.93;;;2.00;;
3755;SDS011;1893;52.526;13.360;2022-10-16T08:12:25;3.77;;;1.60;;
3755;SDS011;1893;52.526;13.360;2022-10-16T08:14:51;4.10;;;1.50;;
3755;SDS011;1893;52.526;13.360;2022-10-16T08:17:16;1.80;;;1.70;;
3755;SDS011;1893;52.526;13.360;2022-10-16T08:19:44;3.30;;;1.60;;
3755;SDS011;1893;52.526;13.360;2022-10-16T08:22:15;4.30;;;1.67;;
3755;SDS011;1893;52.526;13.360;2022-10-16T08:24:41;1.73;;;1.63;;
3755;SDS011;1893;52.526;13.360;2022-10-16T08:27:06;3.33;;;1.83;;
3755;SDS011;1893;52.526;13.360;2022-10-16T08:29:33;4.73;;;1.73;;
3755;SDS011;1893;52.526;13.360;2022-10-16T08:31:59;3.57;;;1.57;;
3755;SDS011;1893;52.526;13.360;2022-10-16T08:34:25;3.93;;;3.60;;
3755;SDS011;1893;52.526;13.360;2022-10-16T08:36:52;2.20;;;1.73;;
3755;SDS011;1893;52.526;13.360;2022-10-16T08:39:19;2.13;;;1.30;;
3755;SDS011;1893;52.526;13.360;2022-10-16T08:44:31;3.03;;;1.83;;
3755;SDS011;1893;52.526;13.360;2022-10-16T08:47:17;2.63;;;1.90;;
3755;SDS011;1893;52.526;13.360;2022-10-16T08:49:55;3.27;;;1.37;;
3755;SDS011;1893;52.526;13.360;2022-10-16T08:52:23;1.50;;;1.40;;
3755;SDS011;1893;52.526;13.360;2022-10-16T08:54:54;2.10;;;1.90;;
3755;SDS011;1893;52.526;13.360;2022-10-16T08:57:22;3.90;;;1.60;;
3755;SDS011;1893;52.526;13.360;2022-10-16T08:59:51;1.80;;;1.70;;
3755;SDS011;1893;52.526;13.360;2022-10-16T09:05:20;1.60;;;1.50;;
3755;SDS011;1893;52.526;13.360;2022-10-16T09:07:55;1.73;;;1.50;;
3755;SDS011;1893;52.526;13.360;2022-10-16T09:13:20;2.97;;;1.80;;
3755;SDS011;1893;52.526;13.360;2022-10-16T09:15:53;1.80;;;1.50;;
3755;SDS011;1893;52.526;13.360;2022-10-16T09:18:37;1.60;;;1.30;;
3755;SDS011;1893;52.526;13.360;2022-10-16T09:21:21;1.40;;;1.10;;
3755;SDS011;1893;52.526;13.360;2022-10-16T09:23:50;1.50;;;1.40;;
3755;SDS011;1893;52.526;13.360;2022-10-16T09:26:16;1.53;;;1.13;;
3755;SDS011;1893;52.526;13.360;2022-10-16T09:28:44;1.27;;;1.10;;
3755;SDS011;1893;52.526;13.360;2022-10-16T09:31:16;1.53;;;1.43;;
3755;SDS011;1893;52.526;13.360;2022-10-16T09:33:44;3.70;;;1.33;;
3755;SDS011;1893;52.526;13.360;2022-10-16T09:36:12;1.20;;;1.07;;
3755;SDS011;1893;52.526;13.360;2022-10-16T09:38:39;1.30;;;1.20;;
3755;SDS011;1893;52.526;13.360;2022-10-16T09:41:20;1.93;;;1.33;;
3755;SDS011;1893;52.526;13.360;2022-10-16T09:43:54;7.37;;;1.43;;
3755;SDS011;1893;52.526;13.360;2022-10-16T09:48:59;1.70;;;1.37;;
3755;SDS011;1893;52.526;13.360;2022-10-16T09:54:34;2.17;;;1.10;;
3755;SDS011;1893;52.526;13.360;2022-10-16T09:56:42;1.30;;;1.13;;
3755;SDS011;1893;52.526;13.360;2022-10-16T09:59:11;1.43;;;1.27;;
3755;SDS011;1893;52.526;13.360;2022-10-16T10:01:42;1.60;;;1.27;;
3755;SDS011;1893;52.526;13.360;2022-10-16T10:04:12;1.67;;;0.90;;
3755;SDS011;1893;52.526;13.360;2022-10-16T10:06:49;1.20;;;1.00;;
3755;SDS011;1893;52.526;13.360;2022-10-16T10:09:30;3.63;;;1.00;;
3755;SDS011;1893;52.526;13.360;2022-10-16T10:12:02;1.30;;;1.20;;
3755;SDS011;1893;52.526;13.360;2022-10-16T10:14:34;1.53;;;1.03;;
3755;SDS011;1893;52.526;13.360;2022-10-16T10:17:16;1.67;;;1.20;;
3755;SDS011;1893;52.526;13.360;2022-10-16T10:20:00;1.30;;;1.00;;
3755;SDS011;1893;52.526;13.360;2022-10-16T10:22:43;1.90;;;1.53;;
3755;SDS011;1893;52.526;13.360;2022-10-16T10:27:39;3.30;;;1.23;;
3755;SDS011;1893;52.526;13.360;2022-10-16T10:33:29;1.70;;;1.07;;
3755;SDS011;1893;52.526;13.360;2022-10-16T10:38:48;1.40;;;1.17;;
3755;SDS011;1893;52.526;13.360;2022-10-16T10:41:55;1.83;;;1.30;;
3755;SDS011;1893;52.526;13.360;2022-10-16T10:55:37;1.63;;;1.13;;
3755;SDS011;1893;52.526;13.360;2022-10-16T11:01:07;1.30;;;1.10;;
3755;SDS011;1893;52.526;13.360;2022-10-16T11:07:00;2.30;;;1.00;;
3755;SDS011;1893;52.526;13.360;2022-10-16T11:09:34;0.83;;;0.83;;
3755;SDS011;1893;52.526;13.360;2022-10-16T11:12:07;2.03;;;1.20;;
3755;SDS011;1893;52.526;13.360;2022-10-16T11:14:43;4.20;;;1.10;;
3755;SDS011;1893;52.526;13.360;2022-10-16T11:17:39;1.50;;;1.30;;
3755;SDS011;1893;52.526;13.360;2022-10-16T11:20:24;1.50;;;0.90;;
3755;SDS011;1893;52.526;13.360;2022-10-16T11:22:57;1.20;;;1.10;;
3755;SDS011;1893;52.526;13.360;2022-10-16T11:25:40;1.20;;;1.10;;
3755;SDS011;1893;52.526;13.360;2022-10-16T11:28:11;3.47;;;1.00;;
3755;SDS011;1893;52.526;13.360;2022-10-16T11:33:59;0.87;;;0.87;;
3755;SDS011;1893;52.526;13.360;2022-10-16T11:36:41;1.60;;;1.20;;
3755;SDS011;1893;52.526;13.360;2022-10-16T11:39:30;2.20;;;1.20;;
3755;SDS011;1893;52.526;13.360;2022-10-16T11:42:10;4.03;;;0.90;;
3755;SDS011;1893;52.526;13.360;2022-10-16T11:44:46;4.10;;;1.00;;
3755;SDS011;1893;52.526;13.360;2022-10-16T11:49:59;3.70;;;1.00;;
3755;SDS011;1893;52.526;13.360;2022-10-16T11:55:49;0.70;;;0.70;;
3755;SDS011;1893;52.526;13.360;2022-10-16T12:00:44;0.90;;;0.90;;
3755;SDS011;1893;52.526;13.360;2022-10-16T12:03:27;1.23;;;1.13;;
3755;SDS011;1893;52.526;13.360;2022-10-16T12:06:13;3.83;;;1.70;;
3755;SDS011;1893;52.526;13.360;2022-10-16T12:09:00;1.20;;;1.10;;
3755;SDS011;1893;52.526;13.360;2022-10-16T12:16:37;1.97;;;0.90;;
3755;SDS011;1893;52.526;13.360;2022-10-16T12:19:28;3.10;;;0.90;;
3755;SDS011;1893;52.526;13.360;2022-10-16T12:21:58;1.60;;;1.27;;
3755;SDS011;1893;52.526;13.360;2022-10-16T12:24:36;1.20;;;1.00;;
3755;SDS011;1893;52.526;13.360;2022-10-16T12:27:04;1.20;;;0.90;;
3755;SDS011;1893;52.526;13.360;2022-10-16T12:29:45;4.00;;;1.33;;
3755;SDS011;1893;52.526;13.360;2022-10-16T12:34:56;1.13;;;0.80;;
3755;SDS011;1893;52.526;13.360;2022-10-16T12:37:33;2.10;;;1.20;;
3755;SDS011;1893;52.526;13.360;2022-10-16T12:40:11;2.43;;;0.80;;
3755;SDS011;1893;52.526;13.360;2022-10-16T12:42:49;0.80;;;0.70;;
3755;SDS011;1893;52.526;13.360;2022-10-16T12:47:52;1.33;;;0.80;;
3755;SDS011;1893;52.526;13.360;2022-10-16T12:50:24;3.33;;;0.90;;
3755;SDS011;1893;52.526;13.360;2022-10-16T12:52:51;0.90;;;0.80;;
3755;SDS011;1893;52.526;13.360;2022-10-16T12:55:17;0.87;;;0.77;;
3755;SDS011;1893;52.526;13.360;2022-10-16T12:58:07;1.00;;;0.90;;
3755;SDS011;1893;52.526;13.360;2022-10-16T13:00:44;1.10;;;1.00;;
3755;SDS011;1893;52.526;13.360;2022-10-16T13:09:10;1.00;;;0.90;;
3755;SDS011;1893;52.526;13.360;2022-10-16T13:12:03;0.80;;;0.77;;
3755;SDS011;1893;52.526;13.360;2022-10-16T13:28:28;2.10;;;0.80;;
3755;SDS011;1893;52.526;13.360;2022-10-16T13:30:57;1.00;;;0.90;;
3755;SDS011;1893;52.526;13.360;2022-10-16T13:33:40;0.80;;;0.80;;
3755;SDS011;1893;52.526;13.360;2022-10-16T13:36:18;1.47;;;0.80;;
3755;SDS011;1893;52.526;13.360;2022-10-16T13:44:35;1.97;;;0.70;;
3755;SDS011;1893;52.526;13.360;2022-10-16T13:47:13;2.70;;;0.70;;
3755;SDS011;1893;52.526;13.360;2022-10-16T13:49:44;1.20;;;0.70;;
3755;SDS011;1893;52.526;13.360;2022-10-16T13:52:17;1.33;;;0.80;;
3755;SDS011;1893;52.526;13.360;2022-10-16T13:54:44;0.87;;;0.80;;
3755;SDS011;1893;52.526;13.360;2022-10-16T13:57:14;1.97;;;0.60;;
3755;SDS011;1893;52.526;13.360;2022-10-16T13:59:40;1.87;;;0.60;;
3755;SDS011;1893;52.526;13.360;2022-10-16T14:04:47;0.80;;;0.80;;
3755;SDS011;1893;52.526;13.360;2022-10-16T14:07:14;0.90;;;0.80;;
3755;SDS011;1893;52.526;13.360;2022-10-16T14:09:53;1.20;;;0.70;;
3755;SDS011;1893;52.526;13.360;2022-10-16T14:12:19;0.90;;;0.73;;
3755;SDS011;1893;52.526;13.360;2022-10-16T14:14:51;1.10;;;0.90;;
3755;SDS011;1893;52.526;13.360;2022-10-16T14:17:20;1.17;;;0.80;;
3755;SDS011;1893;52.526;13.360;2022-10-16T14:19:50;0.93;;;0.83;;
3755;SDS011;1893;52.526;13.360;2022-10-16T14:22:37;1.37;;;0.97;;
3755;SDS011;1893;52.526;13.360;2022-10-16T14:25:40;1.10;;;0.70;;
3755;SDS011;1893;52.526;13.360;2022-10-16T14:33:33;2.70;;;1.13;;
3755;SDS011;1893;52.526;13.360;2022-10-16T14:38:26;1.00;;;0.90;;
3755;SDS011;1893;52.526;13.360;2022-10-16T14:40:52;2.60;;;0.80;;
3755;SDS011;1893;52.526;13.360;2022-10-16T14:44:03;4.00;;;1.00;;
3755;SDS011;1893;52.526;13.360;2022-10-16T14:46:14;1.23;;;1.10;;
3755;SDS011;1893;52.526;13.360;2022-10-16T14:48:48;2.00;;;0.90;;
3755;SDS011;1893;52.526;13.360;2022-10-16T14:51:16;1.53;;;1.03;;
3755;SDS011;1893;52.526;13.360;2022-10-16T14:53:43;1.00;;;0.90;;
3755;SDS011;1893;52.526;13.360;2022-10-16T14:56:09;0.80;;;0.80;;
3755;SDS011;1893;52.526;13.360;2022-10-16T14:58:41;1.90;;;1.20;;
3755;SDS011;1893;52.526;13.360;2022-10-16T15:01:08;3.73;;;1.70;;
3755;SDS011;1893;52.526;13.360;2022-10-16T15:03:35;1.50;;;1.20;;
3755;SDS011;1893;52.526;13.360;2022-10-16T15:06:01;1.43;;;1.20;;
3755;SDS011;1893;52.526;13.360;2022-10-16T15:08:27;1.63;;;0.90;;
3755;SDS011;1893;52.526;13.360;2022-10-16T15:10:52;1.00;;;0.90;;
3755;SDS011;1893;52.526;13.360;2022-10-16T15:13:18;1.00;;;0.90;;
3755;SDS011;1893;52.526;13.360;2022-10-16T15:15:44;2.47;;;1.63;;
3755;SDS011;1893;52.526;13.360;2022-10-16T15:18:11;5.00;;;3.33;;
3755;SDS011;1893;52.526;13.360;2022-10-16T15:20:37;1.00;;;0.90;;
3755;SDS011;1893;52.526;13.360;2022-10-16T15:23:21;2.80;;;1.10;;
3755;SDS011;1893;52.526;13.360;2022-10-16T15:25:48;2.50;;;1.00;;
3755;SDS011;1893;52.526;13.360;2022-10-16T15:28:15;2.97;;;1.03;;
3755;SDS011;1893;52.526;13.360;2022-10-16T15:30:41;1.00;;;0.90;;
3755;SDS011;1893;52.526;13.360;2022-10-16T15:33:16;2.60;;;1.00;;
3755;SDS011;1893;52.526;13.360;2022-10-16T15:35:47;1.10;;;0.90;;
3755;SDS011;1893;52.526;13.360;2022-10-16T15:38:14;1.83;;;0.90;;
3755;SDS011;1893;52.526;13.360;2022-10-16T15:40:40;2.00;;;0.87;;
3755;SDS011;1893;52.526;13.360;2022-10-16T15:43:06;2.40;;;1.20;;
3755;SDS011;1893;52.526;13.360;2022-10-16T15:45:32;1.33;;;1.10;;
3755;SDS011;1893;52.526;13.360;2022-10-16T15:47:58;4.20;;;2.40;;
3755;SDS011;1893;52.526;13.360;2022-10-16T15:50:24;1.40;;;1.30;;
3755;SDS011;1893;52.526;13.360;2022-10-16T15:52:50;3.63;;;1.90;;
3755;SDS011;1893;52.526;13.360;2022-10-16T15:55:16;1.80;;;1.37;;
3755;SDS011;1893;52.526;13.360;2022-10-16T15:57:43;1.43;;;1.10;;
3755;SDS011;1893;52.526;13.360;2022-10-16T16:00:13;1.40;;;1.10;;
3755;SDS011;1893;52.526;13.360;2022-10-16T16:02:40;1.90;;;1.33;;
3755;SDS011;1893;52.526;13.360;2022-10-16T16:05:07;4.73;;;1.13;;
3755;SDS011;1893;52.526;13.360;2022-10-16T16:07:37;1.40;;;1.30;;
3755;SDS011;1893;52.526;13.360;2022-10-16T16:10:04;1.40;;;1.10;;
3755;SDS011;1893;52.526;13.360;2022-10-16T16:12:32;2.30;;;1.70;;
3755;SDS011;1893;52.526;13.360;2022-10-16T16:14:58;1.93;;;1.53;;
3755;SDS011;1893;52.526;13.360;2022-10-16T16:17:24;1.73;;;1.60;;
3755;SDS011;1893;52.526;13.360;2022-10-16T16:19:50;1.87;;;1.70;;
3755;SDS011;1893;52.526;13.360;2022-10-16T16:22:15;4.57;;;1.53;;
3755;SDS011;1893;52.526;13.360;2022-10-16T16:24:41;3.53;;;1.57;;
3755;SDS011;1893;52.526;13.360;2022-10-16T16:27:07;1.73;;;1.50;;
3755;SDS011;1893;52.526;13.360;2022-10-16T16:29:33;1.90;;;1.50;;
3755;SDS011;1893;52.526;13.360;2022-10-16T16:31:59;2.60;;;1.70;;
3755;SDS011;1893;52.526;13.360;2022-10-16T16:34:26;3.50;;;1.33;;
3755;SDS011;1893;52.526;13.360;2022-10-16T16:36:52;1.77;;;1.60;;
3755;SDS011;1893;52.526;13.360;2022-10-16T16:39:18;2.67;;;1.60;;
3755;SDS011;1893;52.526;13.360;2022-10-16T16:41:44;2.57;;;2.13;;
3755;SDS011;1893;52.526;13.360;2022-10-16T16:44:13;2.03;;;1.60;;
3755;SDS011;1893;52.526;13.360;2022-10-16T16:46:40;3.30;;;1.87;;
3755;SDS011;1893;52.526;13.360;2022-10-16T16:49:08;3.37;;;1.93;;
3755;SDS011;1893;52.526;13.360;2022-10-16T16:51:35;2.20;;;1.80;;
3755;SDS011;1893;52.526;13.360;2022-10-16T16:54:02;1.83;;;1.50;;
3755;SDS011;1893;52.526;13.360;2022-10-16T16:56:27;2.37;;;2.17;;
3755;SDS011;1893;52.526;13.360;2022-10-16T16:58:54;5.23;;;1.83;;
3755;SDS011;1893;52.526;13.360;2022-10-16T17:01:21;2.60;;;1.87;;
3755;SDS011;1893;52.526;13.360;2022-10-16T17:03:49;4.37;;;2.67;;
3755;SDS011;1893;52.526;13.360;2022-10-16T17:06:17;4.87;;;3.23;;
3755;SDS011;1893;52.526;13.360;2022-10-16T17:08:43;3.13;;;2.77;;
3755;SDS011;1893;52.526;13.360;2022-10-16T17:11:13;8.13;;;2.87;;
3755;SDS011;1893;52.526;13.360;2022-10-16T17:13:46;5.20;;;3.23;;